createdAt,value
2019-03-30T00:01:08.238Z,114.17
2019-03-30T00:03:37.433Z,118.55
2019-03-30T00:06:06.831Z,132.52
2019-03-30T00:08:35.718Z,131.40
2019-03-30T00:11:05.335Z,125.60
2019-03-30T00:13:33.843Z,120.70
2019-03-30T00:16:02.908Z,129.40
2019-03-30T00:18:33.299Z,119.35
2019-03-30T00:21:02.319Z,126.87
2019-03-30T00:23:30.905Z,142.85
2019-03-30T00:25:59.792Z,130.77
2019-03-30T00:28:29.090Z,127.67
2019-03-30T00:30:57.984Z,157.87
2019-03-30T00:33:27.059Z,142.57
2019-03-30T00:35:56.471Z,144.45
2019-03-30T00:38:30.378Z,139.47
2019-03-30T00:40:59.266Z,130.43
2019-03-30T00:43:33.583Z,131.05
2019-03-30T00:46:08.264Z,135.17
2019-03-30T00:48:36.790Z,141.18
2019-03-30T00:51:35.071Z,133.40
2019-03-30T00:54:03.961Z,139.87
2019-03-30T00:59:32.866Z,159.00
2019-03-30T01:02:35.035Z,171.68
2019-03-30T01:05:06.695Z,163.48
2019-03-30T01:07:38.958Z,163.87
2019-03-30T01:10:08.155Z,169.97
2019-03-30T01:12:36.847Z,156.40
2019-03-30T01:15:35.559Z,163.72
2019-03-30T01:23:33.321Z,147.73
2019-03-30T01:29:00.494Z,161.00
2019-03-30T01:34:16.358Z,151.30
2019-03-30T01:36:45.383Z,142.43
2019-03-30T01:42:02.321Z,157.70
2019-03-30T01:47:32.138Z,144.87
2019-03-30T01:53:02.895Z,138.18
2019-03-30T01:55:37.534Z,138.20
2019-03-30T01:58:06.217Z,155.70
2019-03-30T02:00:35.411Z,140.95
2019-03-30T02:03:06.030Z,156.80
2019-03-30T02:05:34.919Z,148.27
2019-03-30T02:08:03.491Z,150.85
2019-03-30T02:10:42.748Z,153.05
2019-03-30T02:13:11.406Z,142.93
2019-03-30T02:15:40.407Z,151.03
2019-03-30T02:18:10.418Z,150.87
2019-03-30T02:20:40.032Z,162.17
2019-03-30T02:23:09.039Z,155.93
2019-03-30T02:25:37.598Z,147.87
2019-03-30T02:28:07.376Z,139.28
2019-03-30T02:30:36.621Z,155.57
2019-03-30T02:33:06.431Z,142.82
2019-03-30T02:36:00.509Z,149.77
2019-03-30T02:38:31.251Z,152.40
2019-03-30T02:41:27.492Z,137.17
2019-03-30T02:43:56.347Z,140.37
2019-03-30T02:46:32.928Z,149.23
2019-03-30T02:49:14.812Z,141.05
2019-03-30T02:51:44.017Z,145.87
2019-03-30T02:54:36.867Z,157.80
2019-03-30T02:57:06.267Z,150.50
2019-03-30T03:02:46.885Z,137.37
2019-03-30T03:05:36.445Z,152.20
2019-03-30T03:10:39.519Z,139.90
2019-03-30T03:13:08.225Z,128.00
2019-03-30T03:15:37.095Z,138.70
2019-03-30T03:18:37.039Z,139.32
2019-03-30T03:21:08.334Z,141.83
2019-03-30T03:24:06.632Z,123.47
2019-03-30T03:26:35.832Z,129.40
2019-03-30T03:29:35.139Z,133.64
2019-03-30T03:32:04.034Z,139.90
2019-03-30T03:34:38.747Z,156.75
2019-03-30T03:37:07.451Z,132.40
2019-03-30T03:39:36.445Z,145.33
2019-03-30T03:42:06.043Z,128.87
2019-03-30T03:44:36.248Z,138.35
2019-03-30T03:47:05.855Z,146.40
2019-03-30T03:49:34.743Z,145.70
2019-03-30T03:52:03.962Z,149.77
2019-03-30T03:54:35.716Z,150.72
2019-03-30T03:57:06.242Z,164.30
2019-03-30T03:59:40.545Z,153.50
2019-03-30T04:02:10.589Z,162.47
2019-03-30T04:04:39.450Z,145.87
2019-03-30T04:07:08.744Z,150.70
2019-03-30T04:09:38.004Z,173.25
2019-03-30T04:12:39.902Z,169.90
2019-03-30T04:15:13.617Z,151.83
2019-03-30T04:18:01.869Z,159.67
2019-03-30T04:20:31.047Z,157.43
2019-03-30T04:23:11.814Z,168.57
2019-03-30T04:25:40.514Z,171.50
2019-03-30T04:28:09.205Z,164.35
2019-03-30T04:30:38.089Z,177.03
2019-03-30T04:33:06.967Z,166.50
2019-03-30T04:36:05.442Z,183.55
2019-03-30T04:38:34.561Z,181.22
2019-03-30T04:41:33.141Z,174.75
2019-03-30T04:44:02.224Z,166.85
2019-03-30T04:46:40.326Z,170.05
2019-03-30T04:49:09.027Z,163.28
2019-03-30T04:51:37.900Z,165.10
2019-03-30T04:54:35.554Z,160.77
2019-03-30T04:57:04.450Z,150.78
2019-03-30T05:00:03.646Z,139.80
2019-03-30T05:02:33.670Z,130.43
2019-03-30T05:05:33.378Z,131.43
2019-03-30T05:08:02.081Z,133.10
2019-03-30T05:10:37.212Z,124.23
2019-03-30T05:13:06.595Z,117.87
2019-03-30T05:15:35.489Z,129.03
2019-03-30T05:18:05.600Z,130.17
2019-03-30T05:20:37.180Z,120.22
2019-03-30T05:23:06.866Z,114.33
2019-03-30T05:28:33.415Z,117.22
2019-03-30T05:31:35.687Z,128.02
2019-03-30T05:34:06.826Z,125.30
2019-03-30T05:36:41.051Z,120.75
2019-03-30T05:39:10.139Z,124.25
2019-03-30T05:42:05.791Z,134.27
2019-03-30T05:44:35.050Z,116.82
2019-03-30T05:47:36.201Z,117.10
2019-03-30T05:50:06.854Z,116.94
2019-03-30T05:53:05.322Z,128.30
2019-03-30T05:55:34.204Z,139.20
2019-03-30T05:58:39.780Z,126.47
2019-03-30T06:01:12.402Z,126.53
2019-03-30T06:03:41.320Z,123.30
2019-03-30T06:06:14.981Z,113.52
2019-03-30T06:08:48.400Z,114.10
2019-03-30T06:11:20.597Z,130.47
2019-03-30T06:13:49.466Z,129.43
2019-03-30T06:16:18.372Z,121.55
2019-03-30T06:18:47.776Z,124.95
2019-03-30T06:21:16.260Z,106.63
2019-03-30T06:23:48.464Z,106.85
2019-03-30T06:26:15.899Z,112.83
2019-03-30T06:28:45.055Z,123.82
2019-03-30T06:31:14.251Z,115.45
2019-03-30T06:33:43.569Z,107.83
2019-03-30T06:36:12.133Z,108.03
2019-03-30T06:38:40.715Z,110.75
2019-03-30T06:41:09.724Z,89.85
2019-03-30T06:44:00.528Z,76.43
2019-03-30T06:46:31.241Z,68.78
2019-03-30T06:49:28.318Z,67.95
2019-03-30T06:51:57.174Z,69.67
2019-03-30T06:54:34.257Z,72.57
2019-03-30T06:57:02.843Z,73.05
2019-03-30T06:59:32.930Z,70.80
2019-03-30T07:02:01.740Z,66.82
2019-03-30T07:04:30.642Z,67.90
2019-03-30T07:07:00.566Z,56.95
2019-03-30T07:09:30.868Z,60.50
2019-03-30T07:11:59.986Z,50.90
2019-03-30T07:14:34.622Z,55.43
2019-03-30T07:17:03.893Z,49.23
2019-03-30T07:19:43.242Z,45.33
2019-03-30T07:22:11.808Z,40.97
2019-03-30T07:24:40.694Z,41.37
2019-03-30T07:27:10.093Z,39.94
2019-03-30T07:29:38.983Z,40.20
2019-03-30T07:32:07.565Z,44.10
2019-03-30T07:35:04.005Z,42.10
2019-03-30T07:37:32.582Z,42.05
2019-03-30T07:43:01.178Z,43.37
2019-03-30T07:45:38.575Z,45.70
2019-03-30T07:48:07.155Z,47.23
2019-03-30T07:50:36.151Z,51.00
2019-03-30T07:53:44.244Z,58.26
2019-03-30T07:56:08.639Z,56.88
2019-03-30T07:59:04.969Z,57.08
2019-03-30T08:01:33.551Z,59.67
2019-03-30T08:07:01.229Z,59.23
2019-03-30T08:09:39.125Z,58.95
2019-03-30T08:12:07.716Z,54.77
2019-03-30T08:14:36.703Z,55.67
2019-03-30T08:17:34.389Z,56.98
2019-03-30T08:25:30.728Z,51.15
2019-03-30T08:28:33.415Z,52.75
2019-03-30T08:31:02.306Z,55.17
2019-03-30T08:33:38.154Z,50.78
2019-03-30T08:36:07.958Z,50.37
2019-03-30T08:38:36.672Z,45.10
2019-03-30T08:44:07.495Z,47.56
2019-03-30T08:47:06.910Z,46.68
2019-03-30T08:49:35.715Z,48.87
2019-03-30T08:52:34.170Z,42.77
2019-03-30T08:55:03.391Z,42.20
2019-03-30T08:57:40.249Z,44.60
2019-03-30T09:00:09.226Z,43.33
2019-03-30T09:02:47.595Z,44.27
2019-03-30T09:05:16.257Z,43.87
2019-03-30T09:07:45.288Z,45.53
2019-03-30T09:10:14.070Z,41.98
2019-03-30T09:12:43.310Z,38.17
2019-03-30T09:15:12.223Z,41.27
2019-03-30T09:17:40.786Z,29.23
2019-03-30T09:20:09.675Z,33.90
2019-03-30T09:22:38.257Z,29.60
2019-03-30T09:25:07.371Z,33.35
2019-03-30T09:27:36.349Z,30.05
2019-03-30T09:30:09.455Z,32.48
2019-03-30T09:32:38.237Z,35.10
2019-03-30T09:35:13.066Z,33.78
2019-03-30T09:37:41.951Z,30.90
2019-03-30T09:40:37.503Z,32.20
2019-03-30T09:43:06.219Z,35.70
2019-03-30T09:45:42.418Z,30.77
2019-03-30T09:48:11.894Z,29.27
2019-03-30T09:50:40.699Z,27.53
2019-03-30T09:53:11.029Z,29.97
2019-03-30T09:55:39.813Z,32.17
2019-03-30T09:58:08.683Z,29.92
2019-03-30T10:00:37.579Z,32.00
2019-03-30T10:03:06.401Z,35.63
2019-03-30T10:05:35.678Z,28.90
2019-03-30T10:08:05.924Z,28.92
2019-03-30T10:10:34.977Z,34.43
2019-03-30T10:13:03.551Z,31.48
2019-03-30T10:15:32.758Z,28.52
2019-03-30T10:18:03.274Z,27.02
2019-03-30T10:20:37.823Z,26.40
2019-03-30T10:23:06.891Z,24.63
2019-03-30T10:28:33.169Z,25.08
2019-03-30T10:31:35.918Z,26.55
2019-03-30T10:34:06.057Z,22.56
2019-03-30T10:36:40.575Z,26.27
2019-03-30T10:39:09.446Z,26.04
2019-03-30T10:41:38.498Z,29.90
2019-03-30T10:44:08.992Z,27.15
2019-03-30T10:46:37.558Z,30.57
2019-03-30T10:49:06.978Z,27.60
2019-03-30T10:51:36.147Z,28.50
2019-03-30T10:54:07.352Z,31.30
2019-03-30T10:56:36.025Z,26.52
2019-03-30T10:59:06.398Z,23.50
2019-03-30T11:01:39.026Z,24.90
2019-03-30T11:04:08.092Z,28.75
2019-03-30T11:06:36.967Z,26.23
2019-03-30T11:09:06.678Z,23.60
2019-03-30T11:11:35.879Z,21.07
2019-03-30T11:14:22.404Z,24.46
2019-03-30T11:16:50.975Z,23.98
2019-03-30T11:19:53.016Z,24.60
2019-03-30T11:22:21.698Z,21.77
2019-03-30T11:25:07.362Z,25.08
2019-03-30T11:27:29.165Z,22.30
2019-03-30T11:29:57.685Z,29.12
2019-03-30T11:32:26.371Z,22.50
2019-03-30T11:34:54.955Z,28.15
2019-03-30T11:37:46.599Z,21.40
2019-03-30T11:40:15.478Z,21.50
2019-03-30T11:43:11.583Z,22.87
2019-03-30T11:45:40.175Z,23.55
2019-03-30T11:48:26.386Z,19.65
2019-03-30T11:51:07.450Z,17.12
2019-03-30T11:53:36.440Z,17.70
2019-03-30T12:02:06.784Z,19.35
2019-03-30T12:10:01.322Z,21.23
2019-03-30T12:12:39.121Z,18.70
2019-03-30T12:15:08.730Z,19.80
2019-03-30T12:17:40.872Z,21.93
2019-03-30T12:20:31.919Z,17.73
2019-03-30T12:23:00.478Z,21.20
2019-03-30T12:25:59.267Z,20.90
2019-03-30T12:28:27.856Z,16.62
2019-03-30T12:33:57.578Z,17.62
2019-03-30T12:36:33.630Z,18.70
2019-03-30T12:39:02.931Z,18.55
2019-03-30T12:41:31.935Z,18.30
2019-03-30T12:44:01.121Z,16.10
2019-03-30T12:46:30.115Z,16.40
2019-03-30T12:48:59.127Z,18.80
2019-03-30T12:51:28.122Z,18.40
2019-03-30T12:53:58.030Z,19.47
2019-03-30T12:56:35.818Z,17.75
2019-03-30T12:59:06.647Z,19.84
2019-03-30T13:01:41.699Z,18.05
2019-03-30T13:04:24.707Z,18.33
2019-03-30T13:06:53.794Z,17.55
2019-03-30T13:12:21.597Z,18.27
2019-03-30T13:15:23.765Z,17.73
2019-03-30T13:17:52.337Z,18.23
2019-03-30T13:20:51.118Z,16.70
2019-03-30T13:23:19.798Z,14.33
2019-03-30T13:26:03.831Z,16.02
2019-03-30T13:28:29.970Z,14.20
2019-03-30T13:31:00.501Z,15.35
2019-03-30T13:33:31.300Z,17.67
2019-03-30T13:35:59.917Z,13.43
2019-03-30T13:38:31.568Z,14.23
2019-03-30T13:41:00.467Z,12.97
2019-03-30T13:43:30.982Z,15.90
2019-03-30T13:45:59.874Z,16.03
2019-03-30T13:48:29.783Z,14.40
2019-03-30T13:50:58.682Z,18.50
2019-03-30T13:53:27.364Z,14.13
2019-03-30T13:56:16.634Z,14.38
2019-03-30T13:58:36.489Z,13.13
2019-03-30T14:01:21.575Z,13.40
2019-03-30T14:03:50.774Z,15.63
2019-03-30T14:06:19.862Z,12.58
2019-03-30T14:08:48.854Z,11.37
2019-03-30T14:11:17.873Z,11.38
2019-03-30T14:13:46.742Z,11.53
2019-03-30T14:16:16.344Z,10.18
2019-03-30T14:18:46.963Z,12.30
2019-03-30T14:21:40.130Z,11.90
2019-03-30T14:24:09.035Z,13.70
2019-03-30T14:26:44.578Z,12.93
2019-03-30T14:29:13.150Z,15.57
2019-03-30T14:31:41.737Z,11.97
2019-03-30T14:34:34.599Z,9.83
2019-03-30T14:37:03.164Z,13.38
2019-03-30T14:42:35.072Z,13.10
2019-03-30T14:45:33.651Z,9.57
2019-03-30T14:48:02.647Z,10.15
2019-03-30T14:50:37.138Z,9.63
2019-03-30T14:53:06.566Z,8.93
2019-03-30T14:55:35.429Z,10.07
2019-03-30T14:58:05.582Z,9.30
2019-03-30T15:00:34.854Z,8.28
2019-03-30T15:03:22.989Z,9.50
2019-03-30T15:05:51.574Z,12.58
2019-03-30T15:08:50.997Z,7.97
2019-03-30T15:11:21.223Z,8.40
2019-03-30T15:13:59.095Z,7.70
2019-03-30T15:16:27.262Z,9.05
2019-03-30T15:18:59.662Z,11.60
2019-03-30T15:21:35.297Z,7.85
2019-03-30T15:24:04.586Z,7.83
2019-03-30T15:29:33.210Z,10.75
2019-03-30T15:35:00.772Z,9.23
2019-03-30T15:37:37.846Z,11.68
2019-03-30T15:40:07.799Z,9.20
2019-03-30T15:42:39.884Z,11.80
2019-03-30T15:45:08.606Z,14.98
2019-03-30T15:47:37.962Z,11.70
2019-03-30T15:50:07.450Z,12.10
2019-03-30T15:52:36.098Z,14.68
2019-03-30T15:55:07.566Z,12.84
2019-03-30T15:57:36.536Z,9.50
2019-03-30T16:00:09.994Z,8.90
2019-03-30T16:02:39.253Z,12.88
2019-03-30T16:05:08.214Z,6.03
2019-03-30T16:07:37.114Z,49.88
2019-03-30T16:10:06.625Z,9.58
2019-03-30T16:12:35.709Z,8.45
2019-03-30T16:15:06.231Z,6.40
2019-03-30T16:17:34.941Z,6.65
2019-03-30T16:20:05.032Z,7.53
2019-03-30T16:22:36.337Z,7.00
2019-03-30T16:25:07.432Z,10.13
2019-03-30T16:27:39.047Z,9.35
2019-03-30T16:30:07.094Z,6.15
2019-03-30T16:32:37.262Z,8.23
2019-03-30T16:35:06.668Z,9.70
2019-03-30T16:37:35.758Z,8.03
2019-03-30T16:40:06.086Z,14.88
2019-03-30T16:42:35.180Z,6.90
2019-03-30T16:45:06.935Z,8.17
2019-03-30T16:47:35.830Z,19.33
2019-03-30T16:50:07.478Z,21.52
2019-03-30T16:52:41.003Z,26.80
2019-03-30T16:55:09.659Z,24.37
2019-03-30T16:57:43.614Z,30.88
2019-03-30T17:00:08.508Z,32.90
2019-03-30T17:02:39.169Z,29.85
2019-03-30T17:05:07.937Z,32.63
2019-03-30T17:07:37.201Z,32.60
2019-03-30T17:10:07.832Z,34.38
2019-03-30T17:12:37.844Z,32.50
2019-03-30T17:15:07.041Z,38.13
2019-03-30T17:17:36.143Z,30.45
2019-03-30T17:20:07.850Z,33.26
2019-03-30T17:22:37.193Z,32.00
2019-03-30T17:25:07.244Z,36.68
2019-03-30T17:27:41.427Z,37.13
2019-03-30T17:30:10.596Z,36.20
2019-03-30T17:32:40.251Z,32.63
2019-03-30T17:35:08.886Z,29.50
2019-03-30T17:37:37.492Z,29.92
2019-03-30T17:40:07.380Z,31.12
2019-03-30T17:42:38.771Z,30.02
2019-03-30T17:45:07.647Z,32.77
2019-03-30T17:47:36.515Z,33.83
2019-03-30T17:50:07.134Z,39.00
2019-03-30T17:52:36.254Z,30.08
2019-03-30T17:55:05.948Z,34.25
2019-03-30T17:57:34.526Z,37.33
2019-03-30T18:00:07.856Z,39.20
2019-03-30T18:02:35.480Z,34.53
2019-03-30T18:05:05.497Z,35.03
2019-03-30T18:07:34.710Z,36.23
2019-03-30T18:10:04.868Z,39.35
2019-03-30T18:12:34.354Z,37.45
2019-03-30T18:15:04.449Z,43.83
2019-03-30T18:17:34.362Z,36.98
2019-03-30T18:20:02.930Z,36.42
2019-03-30T18:22:31.810Z,39.77
2019-03-30T18:25:00.706Z,38.67
2019-03-30T18:27:29.998Z,40.03
2019-03-30T18:29:58.583Z,37.10
2019-03-30T18:32:27.162Z,40.88
2019-03-30T18:34:56.871Z,49.63
2019-03-30T18:37:32.211Z,41.10
2019-03-30T18:40:01.312Z,39.07
2019-03-30T18:42:33.892Z,38.60
2019-03-30T18:45:03.192Z,46.95
2019-03-30T18:47:32.392Z,43.25
2019-03-30T18:50:01.568Z,43.50
2019-03-30T18:52:31.816Z,48.60
2019-03-30T18:55:00.688Z,41.83
2019-03-30T18:57:32.609Z,42.87
2019-03-30T19:00:01.350Z,40.30
2019-03-30T19:02:31.326Z,46.27
2019-03-30T19:05:00.030Z,46.13
2019-03-30T19:07:30.476Z,69.12
2019-03-30T19:09:59.059Z,49.67
2019-03-30T19:12:27.617Z,53.50
2019-03-30T19:14:57.744Z,495.80
2019-03-30T19:17:26.522Z,55.63
2019-03-30T19:19:55.328Z,51.95
2019-03-30T19:22:23.898Z,58.73
2019-03-30T19:24:52.612Z,55.10
2019-03-30T19:27:23.740Z,96.77
2019-03-30T19:29:54.062Z,56.30
2019-03-30T19:32:22.622Z,55.60
2019-03-30T19:34:51.223Z,66.77
2019-03-30T19:37:19.891Z,61.63
2019-03-30T19:39:48.882Z,64.07
2019-03-30T19:42:18.006Z,92.42
2019-03-30T19:44:46.685Z,82.47
2019-03-30T19:47:15.550Z,71.50
2019-03-30T19:49:44.131Z,54.93
2019-03-30T19:52:13.046Z,50.28
2019-03-30T19:54:46.599Z,49.50
2019-03-30T19:57:15.211Z,48.93
2019-03-30T19:59:44.011Z,54.67
2019-03-30T20:02:12.879Z,58.48
2019-03-30T20:04:41.479Z,50.63
2019-03-30T20:07:10.560Z,57.33
2019-03-30T20:09:39.754Z,51.48
2019-03-30T20:12:08.570Z,60.28
2019-03-30T20:14:37.231Z,52.50
2019-03-30T20:17:06.523Z,53.33
2019-03-30T20:19:35.527Z,56.42
2019-03-30T20:22:05.657Z,54.53
2019-03-30T20:24:35.135Z,60.00
2019-03-30T20:27:03.740Z,59.05
2019-03-30T20:29:32.506Z,56.33
2019-03-30T20:32:01.598Z,59.08
2019-03-30T20:34:31.923Z,57.98
2019-03-30T20:37:00.810Z,56.47
2019-03-30T20:39:29.928Z,54.53
2019-03-30T20:41:58.901Z,56.48
2019-03-30T20:44:27.808Z,57.60
2019-03-30T20:46:56.985Z,53.30
2019-03-30T20:49:26.797Z,62.38
2019-03-30T20:51:56.201Z,62.70
2019-03-30T20:54:24.770Z,60.03
2019-03-30T20:56:53.661Z,56.73
2019-03-30T20:59:22.553Z,55.35
2019-03-30T21:01:53.904Z,55.43
2019-03-30T21:04:22.892Z,61.77
2019-03-30T21:06:52.086Z,58.45
2019-03-30T21:09:20.770Z,67.00
2019-03-30T21:11:49.659Z,59.03
2019-03-30T21:14:18.555Z,67.82
2019-03-30T21:16:47.236Z,61.85
2019-03-30T21:19:16.031Z,63.80
2019-03-30T21:21:44.911Z,63.00
2019-03-30T21:24:13.903Z,66.77
2019-03-30T21:26:42.818Z,61.63
2019-03-30T21:29:11.885Z,64.55
2019-03-30T21:31:41.208Z,90.70
2019-03-30T21:34:10.225Z,154.97
2019-03-30T21:36:39.494Z,97.97
2019-03-30T21:39:09.060Z,78.25
2019-03-30T21:41:38.094Z,70.20
2019-03-30T21:44:21.103Z,67.03
2019-03-30T21:46:37.921Z,63.33
2019-03-30T21:49:07.325Z,72.95
2019-03-30T21:51:36.005Z,68.42
2019-03-30T21:54:06.002Z,82.40
2019-03-30T21:56:34.994Z,92.00
2019-03-30T21:59:03.574Z,90.55
2019-03-30T22:01:32.158Z,97.82
2019-03-30T22:04:00.946Z,90.25
2019-03-30T22:06:30.038Z,91.15
2019-03-30T22:08:59.746Z,78.37
2019-03-30T22:11:28.330Z,83.65
2019-03-30T22:14:00.208Z,76.60
2019-03-30T22:16:31.961Z,98.55
2019-03-30T22:19:00.530Z,113.32
2019-03-30T22:21:29.845Z,103.13
2019-03-30T22:23:58.914Z,84.85
2019-03-30T22:26:27.906Z,81.08
2019-03-30T22:28:57.103Z,80.70
2019-03-30T22:31:25.893Z,75.00
2019-03-30T22:33:56.282Z,77.85
2019-03-30T22:36:25.007Z,76.33
2019-03-30T22:38:54.201Z,74.30
2019-03-30T22:41:22.906Z,68.70
2019-03-30T22:43:51.776Z,75.20
2019-03-30T22:46:20.763Z,68.67
2019-03-30T22:48:49.660Z,73.70
2019-03-30T22:51:18.547Z,66.60
2019-03-30T22:53:47.122Z,66.00
2019-03-30T22:56:16.011Z,64.23
2019-03-30T22:58:44.907Z,67.33
2019-03-30T23:01:15.330Z,62.67
2019-03-30T23:03:46.186Z,76.22
2019-03-30T23:06:15.055Z,67.87
2019-03-30T23:08:43.639Z,75.00
2019-03-30T23:11:12.526Z,70.25
2019-03-30T23:13:41.111Z,75.80
2019-03-30T23:16:09.999Z,70.72
2019-03-30T23:18:39.190Z,73.90
2019-03-30T23:21:07.878Z,69.47
2019-03-30T23:23:36.564Z,77.30
2019-03-30T23:26:06.679Z,73.70
2019-03-30T23:28:35.259Z,75.90
2019-03-30T23:31:04.169Z,68.57
2019-03-30T23:33:32.730Z,87.50
2019-03-30T23:36:01.845Z,81.50
2019-03-30T23:38:32.050Z,84.17
2019-03-30T23:41:00.939Z,76.50
2019-03-30T23:43:30.133Z,77.23
2019-03-30T23:45:59.014Z,83.95
2019-03-30T23:48:27.802Z,92.70
2019-03-30T23:50:57.127Z,81.65
2019-03-30T23:53:25.905Z,86.20
2019-03-30T23:55:54.479Z,89.60
2019-03-30T23:58:23.364Z,96.67
